Date,TemperatureHighF,TemperatureAvgF,TemperatureLowF,DewpointHighF,DewpointAvgF,DewpointLowF,HumidityHigh,HumidityAvg,HumidityLow,PressureMaxIn,PressureMinIn,WindSpeedMaxMPH,WindSpeedAvgMPH,GustSpeedMaxMPH,PrecipitationSumIn
2013-1-1,36,31,19,27,17,7,74,57,42,29.91,29.70,13,5,26,0.00
2013-1-2,27,18,8,16,7,-6,69,60,48,30.09,29.88,9,4,21,0.00
2013-1-3,24,13,4,6,-2,-6,62,51,30,30.12,29.97,8,3,19,0.00
2013-1-4,37,29,17,24,19,7,80,68,56,29.97,29.78,10,4,24,0.00
2013-1-5,40,32,22,25,20,16,78,62,43,30.25,29.80,7,2,19,0.00
2013-1-6,42,32,22,29,24,16,86,73,59,30.21,29.91,9,2,15,0.00
2013-1-7,35,32,23,29,26,21,92,81,73,30.38,29.93,8,2,14,0.00
2013-1-8,46,36,27,29,27,25,92,71,48,30.35,30.24,10,4,21,0.00
2013-1-9,45,36,25,35,28,22,89,73,57,30.40,29.95,8,2,23,0.00
2013-1-10,45,41,33,30,26,24,70,55,46,30.53,29.98,12,6,25,0.00
2013-1-11,40,34,28,37,29,22,95,80,69,30.52,30.24,4,0,6,0.10
2013-1-12,45,41,38,43,40,36,96,95,89,30.25,30.13,2,0,5,0.12
2013-1-13,52,46,41,49,45,40,96,95,91,30.16,29.96,5,2,11,0.01
2013-1-14,61,52,41,52,43,27,95,73,38,30.22,29.84,8,4,22,0.01
2013-1-15,41,37,31,30,26,23,77,64,57,30.30,30.21,4,1,9,0.00
2013-1-16,33,32,29,32,29,23,95,89,70,30.24,29.81,2,0,5,0.00
2013-1-17,41,34,28,34,27,8,95,77,44,30.08,29.80,9,4,18,0.49
2013-1-18,28,20,15,9,0,-8,62,41,30,30.44,30.03,12,4,20,0.01
2013-1-19,47,36,20,31,21,6,73,55,41,30.38,29.86,12,6,31,0.02
2013-1-20,53,41,29,33,26,10,74,55,30,29.89,29.50,16,8,34,0.01
2013-1-21,28,24,20,20,9,0,90,53,37,30.08,29.79,9,3,23,0.00
2013-1-22,24,20,13,20,10,-1,90,67,38,30.05,29.74,13,3,21,0.00
2013-1-23,14,10,3,1,-9,-14,63,43,28,30.13,30.04,11,4,22,0.00
2013-1-24,17,8,0,-9,-12,-15,53,39,27,30.18,30.04,13,7,31,0.00
2013-1-25,22,16,8,2,-6,-9,52,37,27,30.26,30.06,12,5,28,0.00
2013-1-26,23,16,11,11,2,-8,86,57,29,30.20,30.00,10,4,22,0.00
2013-1-27,29,20,13,3,-1,-6,61,41,23,30.45,30.20,11,5,22,0.00
2013-1-28,30,23,14,24,9,-4,93,59,29,30.45,30.02,4,1,8,0.00
2013-1-29,34,29,24,31,26,22,93,88,81,30.19,30.02,3,1,6,0.02
2013-1-30,61,44,33,57,42,31,96,93,86,30.15,29.45,11,4,23,0.30
2013-1-31,58,42,31,56,29,16,95,61,42,29.54,28.92,15,9,40,0.25
2013-2-1,33,28,22,18,10,5,64,47,35,30.05,29.55,15,6,36,0.01
2013-2-2,29,24,17,11,6,3,57,48,37,30.25,30.05,11,4,17,0.00
2013-2-3,27,24,21,21,19,12,89,79,52,30.06,29.73,6,2,12,0.00
2013-2-4,29,25,21,19,10,5,82,56,37,29.91,29.72,13,5,25,0.00
2013-2-5,28,24,20,22,10,5,87,58,44,30.02,29.91,7,1,11,0.00
2013-2-6,37,29,24,26,20,10,92,71,48,30.27,29.91,10,2,16,0.03
2013-2-7,27,21,15,15,1,-6,64,42,24,30.53,30.27,11,2,17,0.03
2013-2-8,33,28,18,30,25,16,95,87,68,30.51,29.65,18,4,35,0.00
2013-2-9,21,18,15,18,14,5,92,84,61,30.18,29.60,18,9,31,0.00
2013-2-10,38,23,11,7,3,-1,61,43,22,30.40,30.18,9,3,20,0.00
2013-2-11,41,32,20,40,26,5,96,80,45,30.34,29.59,6,1,12,0.17
2013-2-12,45,39,34,35,30,28,96,72,52,29.84,29.58,12,6,26,0.01
2013-2-13,42,35,28,28,25,23,83,68,51,29.85,29.70,7,2,14,0.01
2013-2-14,44,35,30,27,24,21,84,65,45,29.97,29.68,6,2,12,0.00
2013-2-15,52,39,29,36,31,23,92,74,50,29.98,29.88,9,4,17,0.00
2013-2-16,39,35,31,33,29,21,94,80,61,29.94,29.70,7,2,16,0.01
2013-2-17,32,23,18,22,14,2,89,69,44,29.70,29.33,18,9,37,0.01
2013-2-18,31,22,14,4,1,-3,57,41,25,30.12,29.61,19,8,31,0.01
2013-2-19,45,35,23,41,21,3,95,59,38,30.14,29.54,7,2,15,0.39
2013-2-20,42,34,27,41,22,13,96,65,44,29.74,29.49,13,6,24,0.40
2013-2-21,30,26,24,17,14,9,67,58,48,30.14,29.74,10,6,25,0.00
2013-2-22,37,30,24,26,22,16,82,70,56,30.38,30.13,10,2,16,0.00
2013-2-23,39,34,30,32,29,25,94,82,71,30.33,29.94,5,1,10,0.05
2013-2-24,37,34,30,36,32,29,96,95,94,29.94,29.70,9,2,15,0.58
2013-2-25,39,32,28,33,30,27,96,90,74,30.22,29.88,4,0,8,0.12
2013-2-26,43,35,30,36,31,28,94,84,65,30.34,30.17,3,0,5,0.01
2013-2-27,41,39,37,39,37,31,96,92,78,30.18,29.52,7,3,15,1.63
2013-2-28,48,38,34,38,35,33,96,88,63,29.62,29.50,7,2,13,0.59
2013-3-1,40,37,34,33,31,29,91,80,70,29.66,29.52,6,2,11,0.00
2013-3-2,44,37,31,31,28,26,82,71,58,29.67,29.61,5,2,13,0.00
2013-3-3,39,35,31,34,30,26,91,81,72,29.65,29.56,7,3,15,0.00
2013-3-4,38,34,30,29,25,23,86,71,59,29.70,29.54,11,6,25,0.00
2013-3-5,42,36,30,35,29,22,92,76,63,30.06,29.70,8,3,18,0.00
2013-3-6,40,37,34,36,33,29,94,86,75,30.13,30.04,9,4,25,0.13
2013-3-7,36,32,30,31,30,29,95,90,75,30.09,29.99,15,9,27,0.04
2013-3-8,43,34,29,32,28,22,96,79,48,30.14,29.95,14,8,22,0.08
2013-3-9,40,35,29,32,27,22,94,72,53,30.35,30.14,10,3,18,0.03
2013-3-10,42,34,27,33,30,25,94,85,70,30.42,30.30,3,1,7,0.00
2013-3-11,51,42,35,40,36,32,91,80,55,30.32,30.14,7,3,12,0.00
2013-3-12,51,47,41,50,45,39,96,93,88,30.14,29.71,8,3,15,0.29
2013-3-13,52,45,37,51,34,22,96,68,41,29.76,29.67,10,4,19,0.30
2013-3-14,37,32,23,25,18,6,72,54,42,29.80,29.67,11,6,24,0.01
2013-3-15,40,29,18,28,12,3,77,50,27,29.84,29.62,11,6,28,0.00
2013-3-16,38,33,28,28,16,9,79,51,32,29.87,29.63,8,3,18,0.00
2013-3-17,35,30,24,16,10,3,66,45,27,30.30,29.87,12,4,24,0.00
2013-3-18,37,28,17,24,11,1,69,49,35,30.46,30.25,6,2,15,0.00
2013-3-19,34,32,26,33,30,24,96,94,73,30.26,29.60,12,3,23,0.14
2013-3-20,38,30,25,25,22,20,93,73,49,29.80,29.67,13,5,24,0.10
2013-3-21,37,31,25,28,22,17,93,71,47,29.80,29.60,4,1,8,0.03
2013-3-22,40,34,29,27,21,16,93,61,41,29.70,29.58,10,3,20,0.01
2013-3-23,43,35,27,24,20,18,75,56,38,29.75,29.62,14,6,31,0.01
2013-3-24,48,38,32,29,25,21,81,59,40,29.79,29.70,10,3,20,0.00
2013-3-25,40,36,30,35,31,24,85,81,74,29.76,29.53,7,2,14,0.00
2013-3-26,50,41,32,33,25,19,92,56,31,29.75,29.52,8,4,14,0.01
2013-3-27,53,42,33,34,26,22,78,54,36,29.84,29.72,11,4,21,0.01
2013-3-28,47,42,37,35,34,32,92,74,56,29.98,29.84,6,2,13,0.03
2013-3-29,56,46,39,40,33,31,75,62,40,30.02,29.95,6,2,19,0.01
2013-3-30,56,45,34,34,29,16,80,56,21,30.08,29.98,8,2,15,0.01
2013-3-31,58,44,27,39,27,-100,85,57,29,30.11,29.78,10,3,20,0.00
2013-4-1,60,47,36,43,37,13,95,71,36,29.77,29.47,12,5,24,0.21
2013-4-2,39,34,29,16,13,10,54,41,30,29.90,29.75,14,7,31,0.02
2013-4-3,46,37,30,17,11,5,55,36,18,30.11,29.89,15,7,34,0.00
2013-4-4,55,42,30,25,16,9,56,36,17,30.27,30.01,10,5,20,0.00
2013-4-5,60,47,38,29,26,21,68,46,23,30.01,29.61,10,5,19,0.00
2013-4-6,45,36,29,23,10,2,54,35,16,30.34,29.84,10,4,30,0.00
2013-4-7,54,41,26,40,27,9,88,59,32,30.34,29.99,15,5,27,0.00
2013-4-8,63,51,43,43,40,33,92,68,34,30.11,29.94,9,3,18,0.00
2013-4-9,68,52,44,50,44,38,93,74,44,30.09,29.86,8,3,20,0.07
2013-4-10,59,48,44,48,44,41,95,86,67,30.02,29.87,4,1,8,0.43
2013-4-11,49,45,42,45,39,29,96,81,57,30.15,29.84,5,1,11,0.41
2013-4-12,43,38,37,38,34,29,95,84,64,30.20,29.81,6,2,14,0.46
2013-4-13,49,40,35,41,36,33,95,86,66,29.91,29.75,7,3,17,0.13
2013-4-14,52,46,39,40,34,29,93,66,42,30.18,29.90,10,3,17,0.03
2013-4-15,55,44,35,39,34,31,85,69,45,30.38,30.19,4,2,11,0.00
2013-4-16,65,52,37,51,42,34,92,70,48,30.39,30.01,13,6,26,0.00
2013-4-17,66,57,44,53,38,28,83,52,26,30.31,30.02,10,5,20,0.00
2013-4-18,58,49,38,42,35,30,86,60,38,30.44,30.14,8,3,17,0.00
2013-4-19,75,63,51,63,56,42,95,79,59,30.14,29.63,13,6,28,0.00
2013-4-20,67,54,46,63,42,25,94,67,38,30.17,29.57,10,5,28,0.41
2013-4-21,52,42,32,30,24,19,84,49,33,30.67,30.17,8,3,20,0.01
2013-4-22,49,40,30,37,32,27,90,73,45,30.78,30.60,6,1,11,0.00
2013-4-23,42,41,39,41,38,31,96,89,74,30.60,30.13,10,3,18,0.09
2013-4-24,68,52,42,54,47,41,96,81,59,30.14,29.78,10,5,16,0.07
2013-4-25,64,55,43,52,38,27,92,58,25,30.25,29.80,10,4,19,0.04
2013-4-26,52,46,40,42,38,28,91,72,55,30.43,30.25,4,1,10,0.03
2013-4-27,63,51,37,41,37,31,95,64,35,30.41,30.29,5,1,9,0.00
2013-4-28,67,55,41,43,36,-100,83,55,30,30.34,30.22,7,2,13,0.00
2013-4-29,68,56,46,49,39,23,83,54,31,30.27,30.18,6,2,17,0.00
2013-4-30,69,56,44,37,28,17,65,39,16,30.36,30.24,4,2,12,0.00
2013-5-1,69,54,39,43,37,32,86,57,27,30.47,30.36,5,1,10,0.00
2013-5-2,76,53,43,48,43,39,91,71,28,30.48,30.36,7,1,14,0.00
2013-5-3,55,48,41,44,41,38,91,79,64,30.53,30.36,6,2,10,0.00
2013-5-4,56,46,36,45,39,34,96,78,47,30.38,30.31,3,1,8,0.00
2013-5-5,61,47,36,45,39,34,95,77,48,30.34,30.25,4,1,10,0.00
2013-5-6,67,50,35,50,43,33,96,80,52,30.30,30.15,4,1,8,0.00
2013-5-7,75,61,41,60,52,39,96,74,50,30.17,30.09,6,2,13,0.00
2013-5-8,74,61,51,63,57,49,96,86,66,30.22,30.06,4,1,16,0.07
2013-5-9,63,57,54,60,56,53,96,95,88,30.06,29.89,2,0,7,0.58
2013-5-10,77,61,54,64,55,-100,97,85,58,29.95,29.88,3,1,9,0.22
2013-5-11,72,64,58,63,59,54,94,84,71,29.89,29.68,9,3,23,0.01
2013-5-12,71,61,51,61,51,-100,96,74,38,29.78,29.54,9,2,23,0.12
2013-5-13,59,50,42,34,31,28,71,49,33,30.01,29.78,8,3,18,0.01
2013-5-14,60,50,40,36,32,28,76,51,30,30.04,29.95,7,2,18,0.00
2013-5-15,65,53,39,52,39,31,86,61,34,30.04,29.66,7,2,16,0.02
2013-5-16,81,62,53,52,24,-100,92,48,19,29.79,29.59,10,4,25,0.02
2013-5-17,68,57,50,47,37,-100,81,58,42,30.19,29.79,8,2,15,0.00
2013-5-18,71,58,43,50,45,41,93,67,37,30.30,30.19,3,1,10,0.00
2013-5-19,60,54,50,53,50,49,95,88,74,30.35,30.24,3,1,7,0.07
2013-5-20,79,65,53,66,60,52,97,84,59,30.23,29.89,5,1,12,0.17
2013-5-21,64,56,50,60,54,49,96,94,87,30.02,29.91,4,1,9,0.01
2013-5-22,56,52,49,55,51,48,97,95,91,30.06,29.87,4,0,11,0.67
2013-5-23,77,62,52,69,59,51,97,90,75,29.93,29.79,8,2,16,0.08
2013-5-24,70,63,52,67,61,51,97,94,85,29.81,29.63,5,2,12,0.81
2013-5-25,52,48,42,51,47,38,96,95,90,29.80,29.67,5,3,15,0.89
2013-5-26,57,48,39,43,40,37,95,76,53,30.06,29.67,8,4,23,0.21
2013-5-27,71,56,43,45,40,34,88,59,26,30.16,30.06,7,3,18,0.01
2013-5-28,72,58,41,53,44,38,93,66,31,30.24,30.15,3,0,7,0.00
2013-5-29,64,59,53,62,58,50,96,94,89,30.18,29.97,2,0,6,0.53
2013-5-30,89,75,60,68,65,59,97,74,44,30.06,29.96,6,2,13,0.24
2013-5-31,95,82,69,69,66,64,85,61,37,30.05,29.88,6,2,13,0.00
2013-6-1,94,82,70,70,66,61,80,60,37,29.93,29.81,6,3,13,0.00
2013-6-2,91,80,71,70,66,-100,86,68,42,29.84,29.68,10,4,24,0.00
2013-6-3,79,70,63,69,64,48,94,81,53,29.83,29.72,4,2,9,0.30
2013-6-4,70,62,52,49,46,43,72,57,41,30.09,29.79,7,2,17,0.03
2013-6-5,74,62,52,52,47,41,79,61,37,30.17,30.08,4,1,11,0.00
2013-6-6,70,62,51,58,52,48,90,72,58,30.19,30.09,2,1,6,0.00
2013-6-7,59,55,53,55,53,51,97,94,81,30.11,29.83,2,0,11,2.12
2013-6-8,77,63,52,66,57,51,97,85,63,29.97,29.61,7,3,14,2.50
2013-6-9,79,68,57,60,57,54,96,70,45,30.13,29.97,7,1,14,0.02
2013-6-10,68,62,56,60,57,53,95,82,71,30.21,30.02,2,0,5,0.30
2013-6-11,59,56,54,57,55,53,96,95,89,30.03,29.57,3,1,10,1.58
2013-6-12,67,61,55,58,56,54,96,84,66,29.79,29.54,8,2,21,0.27
2013-6-13,68,59,54,59,54,52,96,86,65,29.79,29.70,2,0,6,0.40
2013-6-14,76,61,53,61,55,52,97,81,51,29.74,29.65,4,1,9,1.24
2013-6-15,79,67,57,55,50,43,88,58,31,29.91,29.74,6,2,13,0.01
2013-6-16,76,67,56,62,55,49,78,65,42,29.91,29.69,5,2,11,0.00
2013-6-17,85,69,61,64,60,57,96,76,40,29.88,29.73,6,2,14,0.11
2013-6-18,71,62,57,62,58,56,96,89,66,29.95,29.86,3,0,8,0.20
2013-6-19,75,63,56,57,53,48,97,71,43,30.12,29.91,4,1,8,0.21
2013-6-20,80,63,49,59,52,47,93,70,41,30.25,30.12,3,1,8,0.00
2013-6-22,85,80,72,67,63,60,70,58,46,30.18,30.08,6,2,12,0.00
2013-6-23,91,77,65,74,66,58,81,69,56,30.12,29.94,7,2,15,0.00
2013-6-24,95,78,70,74,70,67,94,76,44,29.98,29.83,5,2,14,0.44
2013-6-25,91,79,69,73,69,66,94,74,50,29.88,29.68,6,2,11,0.03
2013-6-26,83,71,62,72,68,61,97,90,66,29.85,29.69,3,1,11,0.83
2013-6-27,66,62,60,64,61,59,97,96,92,29.87,29.76,1,0,5,0.38
2013-6-28,81,68,58,74,65,57,97,92,76,29.77,29.47,5,2,9,0.30
2013-6-29,84,75,70,73,69,67,96,84,63,29.69,29.50,6,2,14,0.09
2013-6-30,87,77,69,75,70,67,95,81,60,29.91,29.69,4,2,11,0.00
2013-7-1,81,73,71,75,71,69,96,93,81,30.06,29.91,3,1,7,1.03
2013-7-2,79,68,58,75,66,57,97,95,86,30.21,30.06,3,1,7,0.04
2013-7-3,89,72,58,76,67,57,97,85,64,30.20,30.09,6,1,9,0.03
2013-7-4,94,84,73,77,74,71,94,73,55,30.17,30.04,5,2,12,0.00
2013-7-5,94,84,75,77,74,72,91,74,52,30.12,29.99,5,2,13,0.00
2013-7-6,90,83,76,75,72,65,90,72,54,30.03,29.94,7,2,16,0.00
2013-7-7,93,80,72,76,68,62,90,69,50,29.98,29.88,5,1,9,0.01
2013-7-8,79,72,64,74,67,-100,96,89,79,30.05,29.88,3,1,7,0.49
2013-7-9,71,66,64,65,64,62,96,92,81,30.10,30.03,2,0,4,0.49
2013-7-10,85,72,64,76,66,-100,97,87,73,30.08,29.76,3,1,8,0.01
2013-7-11,84,76,70,75,72,68,96,88,71,29.91,29.74,3,1,9,0.02
2013-7-12,75,69,65,68,62,59,96,78,61,30.17,29.91,3,1,8,0.01
2013-7-13,78,70,63,69,65,61,94,84,71,30.30,30.19,2,0,4,0.00
2013-7-14,89,77,66,76,71,65,97,82,58,30.28,30.17,5,1,9,0.00
2013-7-15,89,79,73,77,72,69,90,79,59,30.18,30.07,2,1,6,0.00
2013-7-16,91,79,72,76,70,65,83,73,58,30.14,30.08,2,1,7,0.00
2013-7-17,93,79,68,77,71,66,95,79,51,30.16,29.95,3,1,6,0.00
2013-7-18,88,80,73,75,72,69,94,79,60,30.00,29.92,4,1,12,0.00
2013-7-19,96,84,71,79,74,69,95,75,48,29.92,29.67,7,2,16,0.00
2013-7-20,92,84,77,78,72,-100,88,69,54,29.77,29.62,6,2,14,0.00
2013-7-21,84,74,67,68,65,62,92,75,51,29.97,29.77,2,0,6,0.00
2013-7-22,77,70,67,71,67,65,96,90,75,30.01,29.88,2,0,5,0.00
2013-7-23,81,70,68,76,69,66,97,95,85,29.88,29.53,2,0,6,1.08
2013-7-24,85,76,66,74,69,55,97,80,59,29.93,29.56,4,1,11,0.07
2013-7-25,66,61,59,59,56,52,96,83,68,30.10,29.93,3,1,10,0.17
2013-7-26,71,65,60,66,63,59,96,93,82,30.05,29.90,5,1,14,0.27
2013-7-27,85,73,61,70,64,59,94,75,46,30.03,29.96,4,1,11,0.08
2013-7-28,71,66,63,67,65,61,97,94,86,30.01,29.97,3,0,5,0.01
2013-7-29,82,69,64,73,66,63,97,92,74,30.02,29.94,3,0,6,0.15
2013-7-30,81,71,61,67,63,57,97,78,46,30.07,30.01,4,1,12,0.01
2013-7-31,81,71,61,64,61,58,92,73,53,30.11,30.02,3,0,8,0.00
2013-8-1,81,70,62,67,64,61,95,82,57,30.03,29.87,3,1,8,0.00
2013-8-2,83,71,64,68,64,61,96,81,50,29.86,29.76,4,1,15,0.77
2013-8-3,80,71,63,65,63,61,95,79,56,29.84,29.74,6,2,13,0.04
2013-8-4,79,68,61,63,58,54,85,72,49,29.86,29.75,5,1,12,0.01
2013-8-5,76,64,57,54,49,41,86,61,32,30.03,29.85,8,2,20,0.01
2013-8-6,79,64,51,56,51,46,92,67,37,30.14,30.03,2,0,6,0.00
2013-8-7,80,68,55,63,58,53,95,72,44,30.18,30.09,3,1,7,0.00
2013-8-8,82,72,64,72,65,55,89,80,70,30.11,29.98,6,2,12,0.00
2013-8-9,74,72,70,73,71,69,97,94,89,30.00,29.71,4,2,10,1.00
2013-8-10,82,74,65,72,62,54,97,69,39,29.98,29.76,6,2,15,0.07
2013-8-11,81,67,56,62,55,52,90,69,43,30.06,29.98,5,1,13,0.01
2013-8-12,83,68,60,64,59,55,90,75,41,30.00,29.89,5,1,10,0.00
2013-8-13,77,68,64,69,62,-100,95,85,64,29.90,29.67,2,1,4,0.02
2013-8-14,74,65,62,64,52,-100,96,69,48,29.91,29.64,8,3,20,0.02
2013-8-15,77,61,55,58,41,-100,86,63,41,30.09,29.93,5,2,13,0.00
2013-8-16,80,66,57,61,52,-100,85,68,44,30.16,30.08,7,2,14,0.00
2013-8-17,81,67,58,62,58,54,92,74,52,30.27,30.16,2,0,5,0.00
2013-8-18,81,68,57,66,59,-100,96,78,51,30.26,30.06,3,1,6,0.00
2013-8-19,81,68,61,65,50,-100,93,72,52,30.06,29.92,4,2,12,0.00
2013-8-20,86,73,65,68,62,-100,85,71,46,30.06,29.95,4,1,8,0.00
2013-8-21,89,75,63,69,65,61,93,73,46,30.12,29.99,4,1,7,0.00
2013-8-22,88,77,67,74,68,63,89,74,49,30.01,29.79,5,2,11,0.00
2013-8-23,78,71,60,70,62,55,92,73,52,30.10,29.79,5,1,11,0.00
2013-8-24,77,64,54,54,49,44,86,61,32,30.31,30.11,2,1,4,0.00
2013-8-25,82,67,55,58,52,-100,87,62,40,30.35,30.16,4,1,7,0.00
2013-8-26,82,72,65,68,63,56,84,73,61,30.16,29.83,5,2,14,0.00
2013-8-27,80,73,69,69,67,66,92,83,67,29.86,29.81,2,1,5,0.00
2013-8-28,79,72,64,68,66,63,96,81,67,29.97,29.85,2,1,5,0.00
2013-8-29,65,64,62,64,61,58,96,91,85,30.07,29.95,3,1,8,0.00
2013-8-30,86,70,62,69,63,59,92,80,57,30.01,29.79,4,1,10,0.00
2013-8-31,81,74,69,75,71,67,96,89,80,29.81,29.75,3,1,7,0.13
2013-9-1,82,74,72,75,69,-100,95,87,73,29.86,29.76,5,2,12,0.01
2013-9-2,77,73,71,75,71,69,96,95,89,29.85,29.69,2,0,6,0.26
2013-9-3,83,74,66,72,69,59,97,85,62,29.78,29.67,4,1,12,0.01
2013-9-4,81,70,60,61,58,55,90,68,44,29.88,29.77,6,2,20,0.00
2013-9-5,68,62,52,61,56,46,94,81,66,30.13,29.84,3,1,7,0.08
2013-9-6,71,57,46,51,44,40,88,66,36,30.24,30.07,6,1,9,0.01
2013-9-7,79,64,50,58,51,45,85,65,40,30.07,29.83,6,2,10,0.00
2013-9-8,72,64,52,61,50,-100,88,65,41,30.07,29.72,7,2,19,0.00
2013-9-9,73,59,46,50,44,41,86,62,34,30.23,30.07,3,1,13,0.00
2013-9-10,74,67,57,70,62,49,94,84,73,30.14,30.00,5,2,17,0.09
2013-9-11,98,81,69,77,71,67,95,76,43,30.04,29.90,4,2,11,0.01
2013-9-12,90,77,68,75,70,66,94,79,55,29.94,29.66,5,1,17,0.83
2013-9-13,78,68,59,70,65,56,97,91,71,29.73,29.54,1,0,4,1.39
2013-9-14,71,62,54,58,54,51,90,79,61,30.03,29.73,2,0,6,0.01
2013-9-15,71,57,50,54,48,-100,93,77,46,30.14,30.03,3,1,7,0.01
2013-9-16,70,58,50,57,50,40,86,75,60,30.24,30.00,3,1,7,0.00
2013-9-17,63,52,40,48,41,36,88,70,45,30.42,30.24,2,0,7,0.00
2013-9-18,58,46,44,47,43,42,91,89,81,30.31,30.12,3,0,5,0.00
2013-9-19,78,62,51,57,51,47,89,72,39,30.12,30.02,3,1,6,0.00
2013-9-20,77,61,51,62,55,49,96,82,50,30.09,29.99,2,0,4,0.00
2013-9-21,75,65,54,64,59,52,97,83,62,30.01,29.72,4,2,17,0.00
2013-9-22,74,64,54,66,56,-100,96,78,52,29.80,29.59,3,2,11,0.60
2013-9-23,64,53,46,45,43,40,81,69,49,29.98,29.80,3,1,8,0.02
2013-9-24,66,52,44,48,43,39,88,75,45,29.97,29.81,2,1,7,0.00
2013-9-25,68,54,44,52,48,42,93,79,52,29.98,29.87,1,0,5,0.00
2013-9-26,67,57,51,52,50,47,91,77,55,30.12,29.98,2,0,6,0.00
2013-9-27,69,59,52,55,51,49,91,77,55,30.24,30.12,1,0,5,0.00
2013-9-28,73,59,50,57,52,47,94,82,54,30.33,30.24,1,0,4,0.00
2013-9-29,70,54,45,56,48,-100,97,82,50,30.26,30.11,2,0,5,0.00
2013-9-30,70,52,44,54,48,42,97,85,50,30.12,29.97,1,0,4,0.00
2013-10-1,61,58,47,54,52,45,92,79,75,29.96,29.86,3,2,5,0.00
2013-10-2,82,68,56,61,58,53,89,71,49,29.91,29.80,3,1,10,0.00
2013-10-3,81,65,57,58,53,46,86,68,32,30.07,29.92,2,1,9,0.00
2013-10-4,64,59,52,60,56,49,95,88,73,30.08,30.02,1,0,2,0.04
2013-10-5,68,60,55,60,57,54,96,88,70,30.11,30.05,1,0,4,0.02
2013-10-6,59,56,53,57,54,51,96,94,86,30.24,30.11,2,0,5,0.35
2013-10-7,75,66,56,69,64,55,97,92,82,30.14,29.80,7,2,21,0.25
2013-10-8,64,56,46,58,47,41,94,72,44,30.37,29.86,5,2,17,0.12
2013-10-9,59,49,41,50,44,39,95,85,69,30.47,30.37,2,0,5,0.00
2013-10-10,60,50,41,53,48,40,96,91,77,30.37,30.19,2,0,4,0.00
2013-10-11,65,54,47,53,49,44,97,85,48,30.19,30.11,2,0,5,0.00
2013-10-12,58,54,48,56,51,46,96,92,86,30.40,30.14,2,0,6,0.01
2013-10-13,60,49,41,51,44,-100,97,86,63,30.45,30.38,2,0,4,0.01
2013-10-14,65,49,35,51,43,34,96,83,42,30.40,30.24,2,0,6,0.01
2013-10-15,60,55,51,56,52,48,95,88,83,30.26,30.18,2,0,4,0.01
2013-10-16,59,54,48,56,52,47,97,93,86,30.18,29.90,2,0,4,0.00
2013-10-17,75,61,54,60,56,53,97,85,53,29.91,29.70,4,1,11,0.00
2013-10-18,67,61,54,61,52,40,96,73,47,29.88,29.59,7,3,17,0.07
2013-10-19,66,55,44,50,44,39,84,67,44,29.97,29.75,4,1,9,0.05
2013-10-20,65,55,45,51,40,-100,92,61,34,30.00,29.68,5,2,12,0.00
2013-10-21,70,52,40,47,40,35,84,67,35,30.11,29.98,4,1,10,0.00
2013-10-22,68,56,45,53,46,39,97,73,52,29.98,29.69,5,1,16,0.00
2013-10-23,55,47,37,39,35,32,87,65,45,29.79,29.59,2,0,6,0.00
2013-10-24,56,47,39,36,31,26,82,56,34,29.86,29.62,5,2,17,0.00
2013-10-25,52,44,32,35,30,26,79,58,41,30.14,29.86,4,1,9,0.00
2013-10-26,56,44,32,36,30,26,87,60,31,30.14,29.87,6,3,18,0.00
2013-10-27,58,47,40,41,34,-100,93,64,42,30.04,29.80,4,2,15,0.05
2013-10-28,60,45,36,36,30,-100,82,60,38,30.33,30.04,6,2,16,0.01
2013-10-29,53,38,30,32,27,22,88,67,40,30.44,30.33,2,0,5,0.00
2013-10-30,50,39,30,40,34,27,93,82,62,30.36,30.19,2,1,9,0.03
2013-10-31,62,45,32,59,43,30,97,92,83,30.23,29.80,6,2,15,0.14
2013-11-1,71,66,60,63,58,53,95,77,63,29.78,29.41,11,5,36,0.04
2013-11-2,71,57,49,54,46,41,85,67,34,29.71,29.58,3,1,10,0.01
2013-11-3,52,43,32,46,33,-100,92,72,46,30.40,29.71,2,1,6,0.00
2013-11-4,46,32,27,23,21,19,82,66,38,30.69,30.41,3,0,8,0.00
2013-11-5,53,37,27,34,28,22,85,70,40,30.71,30.51,4,1,10,0.00
2013-11-6,64,51,39,49,41,33,81,70,46,30.51,30.01,6,2,14,0.00
2013-11-7,67,55,41,58,51,35,93,84,67,30.01,29.65,5,2,17,0.19
2013-11-8,49,40,33,36,30,24,88,69,44,30.06,29.79,6,2,14,0.03
2013-11-9,45,39,31,31,23,-100,71,55,41,30.18,30.04,6,2,13,0.01
2013-11-10,54,46,39,44,38,30,95,73,53,30.04,29.72,3,2,10,0.06
2013-11-11,54,46,40,33,29,26,68,52,34,30.08,29.81,5,3,13,0.01
2013-11-12,48,36,28,39,25,16,92,65,53,30.16,29.86,5,2,14,0.08
2013-11-13,38,30,24,17,14,12,72,53,38,30.27,30.15,5,2,11,0.02
2013-11-14,52,40,28,26,22,15,61,48,31,30.15,30.01,5,2,13,0.00
2013-11-15,61,47,35,32,23,18,57,39,20,30.19,30.09,3,2,11,0.00
2013-11-16,62,44,33,34,30,-100,87,60,33,30.31,30.16,2,1,5,0.00
2013-11-17,55,44,31,54,41,28,97,91,79,30.32,29.88,5,1,12,0.07
2013-11-18,69,59,50,60,49,33,98,71,41,29.84,29.51,8,3,17,0.27
2013-11-19,49,40,32,32,22,17,55,49,36,30.26,29.63,7,3,21,0.02
2013-11-20,45,33,27,17,16,13,63,50,29,30.61,30.26,4,1,10,0.00
2013-11-21,50,35,24,26,20,15,72,54,33,30.63,30.37,3,1,8,0.00
2013-11-22,44,41,39,43,38,27,97,88,60,30.36,29.81,3,1,9,0.16
2013-11-23,46,39,31,44,27,-100,97,64,41,29.89,29.75,7,3,16,0.01
2013-11-24,31,25,21,18,5,-3,76,43,31,30.13,29.76,9,6,25,0.00
2013-11-25,33,25,17,15,1,-6,51,36,19,30.34,30.14,6,3,15,0.00
2013-11-26,38,34,31,34,23,15,94,64,47,30.32,30.08,4,1,11,0.03
2013-11-27,61,50,36,60,49,32,97,94,79,30.05,29.19,9,4,26,1.08
2013-11-28,38,32,23,32,17,6,80,56,34,30.42,29.39,7,3,17,0.55
2013-11-29,34,25,19,15,10,2,79,54,30,30.73,30.41,5,1,12,0.02
2013-11-30,38,24,15,23,14,-100,81,70,52,30.79,30.45,2,0,6,0.14
2013-12-1,41,38,28,38,34,23,95,86,76,30.44,30.01,5,1,12,0.10
2013-12-2,40,38,36,38,36,35,96,95,93,30.01,29.92,3,1,5,0.04
2013-12-3,50,38,35,38,34,30,96,88,60,29.93,29.84,3,1,6,0.00
2013-12-4,45,36,29,31,28,26,88,74,53,30.19,29.93,5,2,9,0.00
2013-12-5,49,41,28,48,38,25,97,92,87,30.22,29.91,4,0,9,0.00
2013-12-6,55,48,34,54,45,32,97,90,69,30.14,29.84,3,2,9,0.13
2013-12-7,40,33,25,35,26,-100,95,80,59,30.44,30.07,5,1,11,0.17
2013-12-8,29,26,21,21,18,16,87,73,57,30.59,30.44,5,1,10,0.02
2013-12-9,40,33,25,39,31,17,96,91,64,30.52,29.88,5,1,10,0.00
2013-12-10,35,32,26,33,28,15,96,87,62,29.98,29.80,9,3,18,0.01
2013-12-11,32,26,23,20,17,14,81,68,48,30.21,30.00,11,4,20,0.01
2013-12-12,24,19,14,19,8,-1,85,62,35,30.28,30.07,10,3,19,0.00
2013-12-13,28,20,13,20,10,0,81,65,53,30.42,29.99,10,4,21,0.00
2013-12-14,28,15,8,26,7,-100,94,71,54,30.63,30.21,6,3,12,0.00
2013-12-15,34,27,20,33,25,18,96,93,86,30.21,29.43,2,0,7,0.00
2013-12-16,27,23,15,21,13,7,88,67,42,30.19,29.74,4,0,10,0.00
2013-12-17,23,13,3,21,7,-3,92,78,56,30.28,29.95,2,0,4,0.00
2013-12-18,28,21,15,21,17,13,91,86,75,30.05,29.85,4,1,9,0.00
2013-12-19,42,33,25,26,24,20,80,69,51,30.10,29.95,9,3,23,0.17
2013-12-20,52,42,33,38,33,26,85,69,58,30.11,29.89,6,2,14,0.14
2013-12-21,57,49,43,49,41,-100,88,76,67,29.93,29.83,7,3,13,0.04
2013-12-22,52,38,32,48,36,31,96,95,86,30.03,29.80,8,2,15,0.12
2013-12-23,37,32,30,36,32,29,96,96,96,30.09,29.98,5,1,9,0.20
2013-12-24,36,33,30,35,25,17,96,75,54,30.14,30.04,8,2,17,0.06
2013-12-25,21,18,16,10,8,4,75,63,47,30.54,30.49,2,0,3,0.00
2013-12-26,32,24,15,30,20,10,94,84,74,30.50,30.07,5,1,14,0.00
2013-12-27,33,28,23,22,21,19,90,74,59,30.25,30.17,7,3,16,0.00
2013-12-28,46,35,26,30,24,-100,82,68,50,30.20,29.96,8,4,17,0.03
2013-12-29,42,38,33,40,32,26,96,81,66,30.01,29.40,8,2,20,1.11
2013-12-30,42,34,17,36,25,5,94,73,45,30.17,29.49,11,4,24,0.03
2013-12-31,22,16,10,13,3,-2,78,57,41,30.18,30.04,6,2,15,0.00
2014-1-1,25,20,15,12,8,6,79,60,45,30.39,30.18,8,3,23,0.00
2014-1-2,19,11,-1,17,8,-4,92,87,77,30.37,29.88,12,6,19,0.00